createdAt,value
2022-07-25T00:02:10.007Z,98436.00
2022-07-25T00:04:38.428Z,98426.00
2022-07-25T00:07:06.726Z,98436.00
2022-07-25T00:09:35.050Z,98428.00
2022-07-25T00:12:05.004Z,98428.00
2022-07-25T00:14:34.224Z,98425.00
2022-07-25T00:17:02.830Z,98419.00
2022-07-25T00:19:31.166Z,98416.00
2022-07-25T00:21:59.568Z,98416.00
2022-07-25T00:24:27.793Z,98409.00
2022-07-25T00:26:56.097Z,98409.00
2022-07-25T00:29:25.744Z,98410.00
2022-07-25T00:31:53.937Z,98415.00
2022-07-25T00:34:22.159Z,98414.00
2022-07-25T00:36:50.341Z,98419.00
2022-07-25T00:39:18.554Z,98417.00
2022-07-25T00:41:46.778Z,98414.00
2022-07-25T00:44:25.269Z,98415.00
2022-07-25T00:46:53.730Z,98414.00
2022-07-25T00:49:22.040Z,98416.00
2022-07-25T00:51:50.297Z,98416.00
2022-07-25T00:54:18.692Z,98423.00
2022-07-25T00:56:46.904Z,98424.00
2022-07-25T00:59:15.096Z,98416.00
2022-07-25T01:01:45.765Z,98411.00
2022-07-25T01:04:14.035Z,98413.00
2022-07-25T01:06:42.222Z,98406.00
2022-07-25T01:09:10.377Z,98413.00
2022-07-25T01:11:38.696Z,98412.00
2022-07-25T01:14:07.354Z,98405.00
2022-07-25T01:16:35.831Z,98403.00
2022-07-25T01:19:05.664Z,98402.00
2022-07-25T01:21:35.364Z,98393.00
2022-07-25T01:24:03.976Z,98391.00
2022-07-25T01:26:32.771Z,98399.00
2022-07-25T01:29:00.971Z,98392.00
2022-07-25T01:31:29.274Z,98379.00
2022-07-25T01:33:57.537Z,98379.00
2022-07-25T01:36:26.306Z,98389.00
2022-07-25T01:38:55.967Z,98378.00
2022-07-25T01:41:24.204Z,98382.00
2022-07-25T01:43:52.421Z,98383.00
2022-07-25T01:46:20.750Z,98370.00
2022-07-25T01:48:49.019Z,98383.00
2022-07-25T01:51:20.451Z,98381.00
2022-07-25T01:53:48.874Z,98386.00
2022-07-25T01:56:21.877Z,98382.00
2022-07-25T01:58:50.747Z,98379.00
2022-07-25T02:01:19.467Z,98382.00
2022-07-25T02:03:50.580Z,98383.00
2022-07-25T02:06:18.988Z,98383.00
2022-07-25T02:08:47.205Z,98379.00
2022-07-25T02:11:16.111Z,98375.00
2022-07-25T02:13:45.790Z,98370.00
2022-07-25T02:16:14.029Z,98372.00
2022-07-25T02:18:42.268Z,98381.00
2022-07-25T02:21:14.017Z,98357.00
2022-07-25T02:23:43.489Z,98380.00
2022-07-25T02:26:11.839Z,98384.00
2022-07-25T02:28:40.056Z,98380.00
2022-07-25T02:31:09.764Z,98387.00
2022-07-25T02:33:38.813Z,98376.00
2022-07-25T02:36:07.796Z,98377.00
2022-07-25T02:38:35.975Z,98381.00
2022-07-25T02:41:04.276Z,98383.00
2022-07-25T02:43:32.482Z,98373.00
2022-07-25T02:46:00.748Z,98379.00
2022-07-25T02:48:30.439Z,98374.00
2022-07-25T02:50:58.776Z,98368.00
2022-07-25T02:53:54.414Z,98371.00
2022-07-25T02:56:15.517Z,98366.00
2022-07-25T02:58:44.664Z,98352.00
2022-07-25T03:01:12.949Z,98348.00
2022-07-25T03:03:42.601Z,98360.00
2022-07-25T03:06:10.855Z,98355.00
2022-07-25T03:08:39.032Z,98359.00
2022-07-25T03:11:07.268Z,98362.00
2022-07-25T03:13:35.484Z,98350.00
2022-07-25T03:16:03.756Z,98346.00
2022-07-25T03:18:31.931Z,98350.00
2022-07-25T03:21:01.579Z,98339.00
2022-07-25T03:23:31.080Z,98344.00
2022-07-25T03:25:59.458Z,98331.00
2022-07-25T03:28:27.682Z,98333.00
2022-07-25T03:30:55.902Z,98342.00
2022-07-25T03:33:24.088Z,98331.00
2022-07-25T03:35:52.303Z,98331.00
2022-07-25T03:38:21.890Z,98322.00
2022-07-25T03:40:50.168Z,98312.00
2022-07-25T03:43:18.364Z,98312.00
2022-07-25T03:45:46.715Z,98315.00
2022-07-25T03:48:15.060Z,98311.00
2022-07-25T03:50:43.304Z,98313.00
2022-07-25T03:53:11.532Z,98311.00
2022-07-25T03:55:41.612Z,98310.00
2022-07-25T03:58:09.835Z,98304.00
2022-07-25T04:00:38.055Z,98308.00
2022-07-25T04:03:07.016Z,98304.00
2022-07-25T04:05:35.362Z,98314.00
2022-07-25T04:08:03.671Z,98308.00
2022-07-25T04:10:33.133Z,98310.00
2022-07-25T04:13:03.598Z,98309.00
2022-07-25T04:15:31.798Z,98306.00
2022-07-25T04:18:05.124Z,98292.00
2022-07-25T04:20:37.583Z,98305.00
2022-07-25T04:23:05.845Z,98301.00
2022-07-25T04:25:34.020Z,98305.00
2022-07-25T04:28:03.619Z,98301.00
2022-07-25T04:30:31.807Z,98307.00
2022-07-25T04:33:00.203Z,98294.00
2022-07-25T04:35:28.375Z,98285.00
2022-07-25T04:37:56.611Z,98290.00
2022-07-25T04:40:24.813Z,98290.00
2022-07-25T04:42:53.020Z,98292.00
2022-07-25T04:45:22.857Z,98289.00
2022-07-25T04:47:51.200Z,98288.00
2022-07-25T04:50:24.557Z,98283.00
2022-07-25T04:52:53.298Z,98283.00
2022-07-25T04:55:21.940Z,98278.00
2022-07-25T04:57:50.186Z,98285.00
2022-07-25T05:00:18.902Z,98285.00
2022-07-25T05:02:48.520Z,98280.00
2022-07-25T05:05:20.955Z,98274.00
2022-07-25T05:07:50.535Z,98284.00
2022-07-25T05:10:18.781Z,98273.00
2022-07-25T05:12:47.027Z,98278.00
2022-07-25T05:15:15.218Z,98268.00
2022-07-25T05:17:43.473Z,98270.00
2022-07-25T05:20:13.765Z,98268.00
2022-07-25T05:22:44.995Z,98263.00
2022-07-25T05:25:13.509Z,98270.00
2022-07-25T05:27:41.792Z,98258.00
2022-07-25T05:30:10.990Z,98262.00
2022-07-25T05:32:39.422Z,98255.00
2022-07-25T05:35:10.732Z,98265.00
2022-07-25T05:37:40.328Z,98280.00
2022-07-25T05:40:08.796Z,98280.00
2022-07-25T05:42:37.105Z,98272.00
2022-07-25T05:45:06.015Z,98269.00
2022-07-25T05:47:34.292Z,98280.00
2022-07-25T05:50:03.381Z,98275.00
2022-07-25T05:52:31.665Z,98274.00
2022-07-25T05:55:01.223Z,98271.00
2022-07-25T05:57:29.426Z,98271.00
2022-07-25T05:59:58.063Z,98278.00
2022-07-25T06:02:26.419Z,98264.00
2022-07-25T06:04:54.768Z,98267.00
2022-07-25T06:07:23.424Z,98263.00
2022-07-25T06:09:51.607Z,98250.00
2022-07-25T06:12:21.183Z,98248.00
2022-07-25T06:14:52.604Z,98252.00
2022-07-25T06:17:21.694Z,98257.00
2022-07-25T06:19:49.930Z,98250.00
2022-07-25T06:22:19.702Z,98254.00
2022-07-25T06:24:47.910Z,98257.00
2022-07-25T06:27:20.259Z,98262.00
2022-07-25T06:29:50.614Z,98264.00
2022-07-25T06:32:18.843Z,98251.00
2022-07-25T06:34:47.205Z,98247.00
2022-07-25T06:37:16.120Z,98252.00
2022-07-25T06:39:46.142Z,98247.00
2022-07-25T06:42:17.523Z,98248.00
2022-07-25T06:44:45.775Z,98249.00
2022-07-25T06:47:15.959Z,98244.00
2022-07-25T06:49:44.372Z,98238.00
2022-07-25T06:52:16.035Z,98249.00
2022-07-25T06:54:44.262Z,98238.00
2022-07-25T06:57:12.498Z,98233.00
2022-07-25T06:59:40.723Z,98236.00
2022-07-25T07:02:09.483Z,98234.00
2022-07-25T07:04:39.074Z,98221.00
2022-07-25T07:07:07.301Z,98222.00
2022-07-25T07:09:35.513Z,98226.00
2022-07-25T07:12:04.295Z,98229.00
2022-07-25T07:14:32.518Z,98216.00
2022-07-25T07:17:00.737Z,98217.00
2022-07-25T07:19:28.948Z,98210.00
2022-07-25T07:21:58.545Z,98213.00
2022-07-25T07:24:27.117Z,98206.00
2022-07-25T07:26:55.538Z,98197.00
2022-07-25T07:29:24.862Z,98202.00
2022-07-25T07:31:53.385Z,98185.00
2022-07-25T07:34:22.437Z,98192.00
2022-07-25T07:36:53.721Z,98190.00
2022-07-25T07:39:23.363Z,98191.00
2022-07-25T07:41:51.580Z,98189.00
2022-07-25T07:44:19.811Z,98183.00
2022-07-25T07:46:48.065Z,98180.00
2022-07-25T07:49:16.482Z,98181.00
2022-07-25T07:51:44.749Z,98182.00
2022-07-25T07:54:30.600Z,98171.00
2022-07-25T07:57:00.190Z,98169.00
2022-07-25T07:59:28.382Z,98165.00
2022-07-25T08:01:57.070Z,98160.00
2022-07-25T08:04:25.363Z,98158.00
2022-07-25T08:06:53.701Z,98162.00
2022-07-25T08:09:21.903Z,98157.00
2022-07-25T08:11:50.125Z,98156.00
2022-07-25T08:14:19.942Z,98155.00
2022-07-25T08:16:48.172Z,98154.00
2022-07-25T08:19:16.382Z,98149.00
2022-07-25T08:21:46.853Z,98153.00
2022-07-25T08:24:15.682Z,98154.00
2022-07-25T08:26:43.893Z,98137.00
2022-07-25T08:29:19.071Z,98137.00
2022-07-25T08:31:49.704Z,98136.00
2022-07-25T08:34:18.014Z,98140.00
2022-07-25T08:36:46.224Z,98132.00
2022-07-25T08:39:14.465Z,98127.00
2022-07-25T08:41:50.189Z,98138.00
2022-07-25T08:44:18.527Z,98135.00
2022-07-25T08:46:46.834Z,98130.00
2022-07-25T08:49:16.558Z,98121.00
2022-07-25T08:51:44.817Z,98121.00
2022-07-25T08:54:13.109Z,98116.00
2022-07-25T08:56:42.386Z,98112.00
2022-07-25T08:59:11.011Z,98110.00
2022-07-25T09:01:40.525Z,98114.00
2022-07-25T09:04:09.573Z,98110.00
2022-07-25T09:06:51.690Z,98107.00
2022-07-25T09:09:19.987Z,98112.00
2022-07-25T09:11:48.255Z,98095.00
2022-07-25T09:14:16.548Z,98093.00
2022-07-25T09:16:45.746Z,98092.00
2022-07-25T09:19:14.835Z,98090.00
2022-07-25T09:21:45.421Z,98084.00
2022-07-25T09:24:17.095Z,98081.00
2022-07-25T09:26:49.988Z,98082.00
2022-07-25T09:29:22.617Z,98085.00
2022-07-25T09:31:50.851Z,98077.00
2022-07-25T09:34:30.870Z,98069.00
2022-07-25T09:36:59.439Z,98065.00
2022-07-25T09:39:45.365Z,98073.00
2022-07-25T09:42:33.469Z,98064.00
2022-07-25T09:45:06.704Z,98053.00
2022-07-25T09:47:36.772Z,98049.00
2022-07-25T09:50:06.142Z,98044.00
2022-07-25T09:52:34.532Z,98040.00
2022-07-25T09:55:06.471Z,98041.00
2022-07-25T09:57:34.748Z,98045.00
2022-07-25T10:00:07.607Z,98035.00
2022-07-25T10:02:42.175Z,98036.00
2022-07-25T10:05:13.919Z,98028.00
2022-07-25T10:07:44.381Z,98035.00
2022-07-25T10:10:23.090Z,98033.00
2022-07-25T10:13:07.841Z,98025.00
2022-07-25T10:15:48.670Z,98027.00
2022-07-25T10:18:17.549Z,98027.00
2022-07-25T10:20:46.692Z,98018.00
2022-07-25T10:23:19.426Z,98018.00
2022-07-25T10:25:49.453Z,98016.00
2022-07-25T10:28:21.248Z,98013.00
2022-07-25T10:30:49.479Z,98010.00
2022-07-25T10:33:20.030Z,98016.00
2022-07-25T10:35:48.446Z,98006.00
2022-07-25T10:38:24.548Z,98011.00
2022-07-25T10:40:54.123Z,98000.00
2022-07-25T10:43:25.633Z,98000.00
2022-07-25T10:45:55.305Z,97993.00
2022-07-25T10:48:25.194Z,97998.00
2022-07-25T10:50:56.185Z,97985.00
2022-07-25T10:53:35.130Z,97989.00
2022-07-25T10:56:10.047Z,97984.00
2022-07-25T10:58:48.759Z,97978.00
2022-07-25T11:01:21.286Z,97971.00
2022-07-25T11:03:49.784Z,97966.00
2022-07-25T11:06:18.134Z,97965.00
2022-07-25T11:08:46.852Z,97960.00
2022-07-25T11:11:16.457Z,97967.00
2022-07-25T11:13:45.127Z,97951.00
2022-07-25T11:16:13.580Z,97951.00
2022-07-25T11:18:44.859Z,97949.00
2022-07-25T11:21:13.054Z,97947.00
2022-07-25T11:23:41.581Z,97939.00
2022-07-25T11:26:10.491Z,97929.00
2022-07-25T11:28:44.601Z,97913.00
2022-07-25T11:31:13.415Z,97914.00
2022-07-25T11:33:42.180Z,97918.00
2022-07-25T11:36:13.436Z,97909.00
2022-07-25T11:38:42.054Z,97912.00
2022-07-25T11:41:10.436Z,97912.00
2022-07-25T11:43:38.655Z,97918.00
2022-07-25T11:46:08.385Z,97910.00
2022-07-25T11:48:37.823Z,97898.00
2022-07-25T11:51:18.334Z,97900.00
2022-07-25T11:53:48.438Z,97896.00
2022-07-25T11:56:41.212Z,97884.00
2022-07-25T11:59:07.664Z,97877.00
2022-07-25T12:01:39.362Z,97885.00
2022-07-25T12:04:11.843Z,97883.00
2022-07-25T12:06:40.578Z,97895.00
2022-07-25T12:09:18.845Z,97885.00
2022-07-25T12:11:48.032Z,97867.00
2022-07-25T12:14:16.684Z,97888.00
2022-07-25T12:16:46.476Z,97882.00
2022-07-25T12:19:21.603Z,97871.00
2022-07-25T12:21:49.846Z,97873.00
2022-07-25T12:24:18.049Z,97876.00
2022-07-25T12:26:46.285Z,97873.00
2022-07-25T12:29:14.565Z,97869.00
2022-07-25T12:31:42.777Z,97865.00
2022-07-25T12:34:12.393Z,97866.00
2022-07-25T12:36:45.363Z,97862.00
2022-07-25T12:39:13.646Z,97858.00
2022-07-25T12:41:42.793Z,97857.00
2022-07-25T12:44:11.375Z,97859.00
2022-07-25T12:46:47.236Z,97854.00
2022-07-25T12:49:18.854Z,97862.00
2022-07-25T12:51:47.144Z,97851.00
2022-07-25T12:54:21.713Z,97850.00
2022-07-25T12:56:50.691Z,97850.00
2022-07-25T12:59:18.911Z,97851.00
2022-07-25T13:01:47.222Z,97848.00
2022-07-25T13:04:15.513Z,97848.00
2022-07-25T13:06:45.119Z,97853.00
2022-07-25T13:09:13.290Z,97847.00
2022-07-25T13:11:42.494Z,97844.00
2022-07-25T13:14:10.717Z,97848.00
2022-07-25T13:16:39.186Z,97845.00
2022-07-25T13:19:08.003Z,97839.00
2022-07-25T13:21:37.499Z,97845.00
2022-07-25T13:24:08.281Z,97843.00
2022-07-25T13:26:36.799Z,97852.00
2022-07-25T13:29:08.620Z,97845.00
2022-07-25T13:31:38.537Z,97850.00
2022-07-25T13:34:06.840Z,97849.00
2022-07-25T13:36:35.313Z,97847.00
2022-07-25T13:39:03.755Z,97852.00
2022-07-25T13:41:33.549Z,97847.00
2022-07-25T13:44:01.725Z,97849.00
2022-07-25T13:46:29.931Z,97858.00
2022-07-25T13:48:58.259Z,97851.00
2022-07-25T13:51:26.555Z,97850.00
2022-07-25T13:53:54.763Z,97848.00
2022-07-25T13:56:22.957Z,97849.00
2022-07-25T13:58:52.535Z,97848.00
2022-07-25T14:01:20.794Z,97846.00
2022-07-25T14:03:51.880Z,97849.00
2022-07-25T14:06:20.128Z,97863.00
2022-07-25T14:08:48.423Z,97848.00
2022-07-25T14:11:16.621Z,97845.00
2022-07-25T14:13:45.408Z,97848.00
2022-07-25T14:16:17.488Z,97849.00
2022-07-25T14:18:45.746Z,97844.00
2022-07-25T14:21:13.947Z,97854.00
2022-07-25T14:23:42.605Z,97841.00
2022-07-25T14:26:10.760Z,97840.00
2022-07-25T14:28:39.005Z,97847.00
2022-07-25T14:31:07.319Z,97845.00
2022-07-25T14:33:40.142Z,97847.00
2022-07-25T14:36:09.024Z,97847.00
2022-07-25T14:38:37.329Z,97850.00
2022-07-25T14:41:10.682Z,97844.00
2022-07-25T14:43:40.878Z,97841.00
2022-07-25T14:46:09.187Z,97836.00
2022-07-25T14:48:38.985Z,97838.00
2022-07-25T14:51:07.725Z,97833.00
2022-07-25T14:53:36.055Z,97828.00
2022-07-25T14:56:04.386Z,97835.00
2022-07-25T14:58:32.645Z,97829.00
2022-07-25T15:01:00.989Z,97828.00
2022-07-25T15:03:29.307Z,97831.00
2022-07-25T15:05:58.922Z,97827.00
2022-07-25T15:08:27.176Z,97832.00
2022-07-25T15:10:55.380Z,97828.00
2022-07-25T15:13:32.428Z,97829.00
2022-07-25T15:16:01.030Z,97818.00
2022-07-25T15:18:32.262Z,97816.00
2022-07-25T15:21:05.672Z,97812.00
2022-07-25T15:23:33.918Z,97816.00
2022-07-25T15:26:03.525Z,97812.00
2022-07-25T15:28:32.846Z,97811.00
2022-07-25T15:31:01.316Z,97803.00
2022-07-25T15:33:29.635Z,97810.00
2022-07-25T15:35:57.810Z,97815.00
2022-07-25T15:38:27.413Z,97809.00
2022-07-25T15:40:55.592Z,97810.00
2022-07-25T15:43:24.375Z,97803.00
2022-07-25T15:45:53.433Z,97811.00
2022-07-25T15:48:21.681Z,97811.00
2022-07-25T15:50:51.539Z,97810.00
2022-07-25T15:53:19.806Z,97812.00
2022-07-25T15:55:49.384Z,97811.00
2022-07-25T15:58:17.551Z,97818.00
2022-07-25T16:00:45.810Z,97814.00
2022-07-25T16:03:14.451Z,97813.00
2022-07-25T16:05:42.665Z,97819.00
2022-07-25T16:08:11.163Z,97825.00
2022-07-25T16:10:39.528Z,97826.00
2022-07-25T16:13:09.082Z,97827.00
2022-07-25T16:15:37.569Z,97815.00
2022-07-25T16:18:05.782Z,97823.00
2022-07-25T16:20:36.869Z,97822.00
2022-07-25T16:23:05.048Z,97813.00
2022-07-25T16:25:33.441Z,97814.00
2022-07-25T16:28:01.683Z,97812.00
2022-07-25T16:30:31.346Z,97808.00
2022-07-25T16:32:59.595Z,97820.00
2022-07-25T16:35:27.872Z,97822.00
2022-07-25T16:37:56.076Z,97814.00
2022-07-25T16:40:30.708Z,97810.00
2022-07-25T16:42:59.828Z,97815.00
2022-07-25T16:45:28.283Z,97812.00
2022-07-25T16:47:57.977Z,97806.00
2022-07-25T16:50:26.231Z,97816.00
2022-07-25T16:52:54.943Z,97809.00
2022-07-25T16:55:23.218Z,97809.00
2022-07-25T16:57:51.427Z,97805.00
2022-07-25T17:00:20.459Z,97799.00
2022-07-25T17:02:48.658Z,97798.00
2022-07-25T17:05:18.553Z,97798.00
2022-07-25T17:07:47.500Z,97796.00
2022-07-25T17:10:15.687Z,97784.00
2022-07-25T17:12:43.949Z,97782.00
2022-07-25T17:15:12.971Z,97782.00
2022-07-25T17:17:41.173Z,97777.00
2022-07-25T17:20:10.577Z,97783.00
2022-07-25T17:22:40.210Z,97782.00
2022-07-25T17:25:08.930Z,97777.00
2022-07-25T17:27:37.346Z,97775.00
2022-07-25T17:30:06.585Z,97760.00
2022-07-25T17:32:34.898Z,97780.00
2022-07-25T17:35:03.188Z,97774.00
2022-07-25T17:37:42.912Z,97772.00
2022-07-25T17:40:19.536Z,97779.00
2022-07-25T17:42:56.622Z,97782.00
2022-07-25T17:45:39.045Z,97783.00
2022-07-25T17:48:10.081Z,97784.00
2022-07-25T17:50:43.745Z,97788.00
2022-07-25T17:53:25.840Z,97791.00
2022-07-25T17:55:58.367Z,97799.00
2022-07-25T17:58:35.643Z,97789.00
2022-07-25T18:01:19.618Z,97782.00
2022-07-25T18:03:53.364Z,97777.00
2022-07-25T18:06:30.063Z,97777.00
2022-07-25T18:09:20.409Z,97786.00
2022-07-25T18:11:50.033Z,97791.00
2022-07-25T18:14:32.044Z,97790.00
2022-07-25T18:17:12.638Z,97785.00
2022-07-25T18:19:46.608Z,97802.00
2022-07-25T18:22:26.443Z,97824.00
2022-07-25T18:25:11.605Z,97905.00
2022-07-25T18:27:57.221Z,97995.00
2022-07-25T18:30:31.071Z,97934.00
2022-07-25T18:33:16.341Z,97916.00
2022-07-25T18:35:44.711Z,97903.00
2022-07-25T18:40:42.442Z,97870.00
2022-07-25T18:43:11.857Z,97864.00
2022-07-25T18:45:40.113Z,97865.00
2022-07-25T18:48:08.824Z,97869.00
2022-07-25T18:50:37.066Z,97882.00
2022-07-25T18:53:05.806Z,97886.00
2022-07-25T18:55:34.039Z,97881.00
2022-07-25T18:58:03.690Z,97885.00
2022-07-25T19:00:32.088Z,97894.00
2022-07-25T19:03:00.309Z,97892.00
2022-07-25T19:05:28.690Z,97900.00
2022-07-25T19:07:59.780Z,97905.00
2022-07-25T19:10:28.048Z,97914.00
2022-07-25T19:12:56.377Z,97917.00
2022-07-25T19:15:27.996Z,97915.00
2022-07-25T19:17:56.302Z,97929.00
2022-07-25T19:20:24.881Z,97925.00
2022-07-25T19:22:53.120Z,97929.00
2022-07-25T19:25:21.576Z,97933.00
2022-07-25T19:27:51.158Z,97941.00
2022-07-25T19:30:20.027Z,97941.00
2022-07-25T19:32:49.652Z,97940.00
2022-07-25T19:35:24.109Z,97949.00
2022-07-25T19:37:54.315Z,97955.00
2022-07-25T19:40:22.721Z,97952.00
2022-07-25T19:42:50.991Z,97958.00
2022-07-25T19:45:19.226Z,97969.00
2022-07-25T19:47:47.445Z,97962.00
2022-07-25T19:50:17.081Z,97970.00
2022-07-25T19:52:45.329Z,97975.00
2022-07-25T19:55:13.524Z,97980.00
2022-07-25T19:57:42.626Z,97988.00
2022-07-25T20:00:11.627Z,97996.00
2022-07-25T20:02:40.747Z,97993.00
2022-07-25T20:05:09.826Z,97995.00
2022-07-25T20:07:39.469Z,97995.00
2022-07-25T20:10:08.864Z,98004.00
2022-07-25T20:12:37.152Z,98011.00
2022-07-25T20:15:06.277Z,98007.00
2022-07-25T20:17:34.496Z,98009.00
2022-07-25T20:20:02.709Z,98008.00
2022-07-25T20:22:31.664Z,98015.00
2022-07-25T20:25:01.290Z,98023.00
2022-07-25T20:27:29.513Z,98022.00
2022-07-25T20:29:57.681Z,98027.00
2022-07-25T20:32:25.926Z,98022.00
2022-07-25T20:34:54.208Z,98037.00
2022-07-25T20:37:22.507Z,98038.00
2022-07-25T20:39:50.738Z,98045.00
2022-07-25T20:42:20.945Z,98044.00
2022-07-25T20:44:49.205Z,98044.00
2022-07-25T20:47:17.796Z,98043.00
2022-07-25T20:49:46.236Z,98044.00
2022-07-25T20:52:14.647Z,98046.00
2022-07-25T20:54:43.188Z,98055.00
2022-07-25T20:57:13.018Z,98070.00
2022-07-25T20:59:43.667Z,98067.00
2022-07-25T21:02:12.024Z,98081.00
2022-07-25T21:04:40.265Z,98086.00
2022-07-25T21:07:08.495Z,98086.00
2022-07-25T21:09:39.542Z,98094.00
2022-07-25T21:12:08.361Z,98107.00
2022-07-25T21:14:36.604Z,98108.00
2022-07-25T21:17:06.291Z,98120.00
2022-07-25T21:19:34.610Z,98129.00
2022-07-25T21:22:03.054Z,98137.00
2022-07-25T21:24:31.342Z,98136.00
2022-07-25T21:26:59.647Z,98139.00
2022-07-25T21:29:27.936Z,98141.00
2022-07-25T21:31:56.265Z,98130.00
2022-07-25T21:34:25.930Z,98136.00
2022-07-25T21:36:54.204Z,98150.00
2022-07-25T21:39:22.436Z,98147.00
2022-07-25T21:41:56.138Z,98154.00
2022-07-25T21:44:25.191Z,98161.00
2022-07-25T21:46:53.769Z,98164.00
2022-07-25T21:49:41.468Z,98158.00
2022-07-25T21:52:13.743Z,98167.00
2022-07-25T21:54:42.376Z,98168.00
2022-07-25T21:57:13.827Z,98178.00
2022-07-25T21:59:42.316Z,98167.00
2022-07-25T22:02:10.493Z,98166.00
2022-07-25T22:04:38.845Z,98172.00
2022-07-25T22:07:07.050Z,98165.00
2022-07-25T22:09:36.798Z,98175.00
2022-07-25T22:12:05.323Z,98169.00
2022-07-25T22:14:33.556Z,98176.00
2022-07-25T22:17:01.811Z,98172.00
2022-07-25T22:19:30.095Z,98187.00
2022-07-25T22:21:58.286Z,98182.00
2022-07-25T22:24:26.539Z,98185.00
2022-07-25T22:26:56.598Z,98194.00
2022-07-25T22:29:24.854Z,98197.00
2022-07-25T22:31:53.114Z,98207.00
2022-07-25T22:34:27.541Z,98211.00
2022-07-25T22:36:55.758Z,98222.00
2022-07-25T22:39:23.992Z,98223.00
2022-07-25T22:41:52.292Z,98228.00
2022-07-25T22:44:21.943Z,98227.00
2022-07-25T22:46:50.143Z,98228.00
2022-07-25T22:49:18.436Z,98235.00
2022-07-25T22:51:46.654Z,98233.00
2022-07-25T22:54:14.928Z,98237.00
2022-07-25T22:56:43.178Z,98232.00
2022-07-25T22:59:11.541Z,98237.00
2022-07-25T23:01:41.167Z,98247.00
2022-07-25T23:04:09.451Z,98255.00
2022-07-25T23:06:37.676Z,98256.00
2022-07-25T23:09:06.263Z,98251.00
2022-07-25T23:11:34.635Z,98253.00
2022-07-25T23:14:02.788Z,98248.00
2022-07-25T23:16:30.977Z,98253.00
2022-07-25T23:19:00.659Z,98253.00
2022-07-25T23:21:28.841Z,98252.00
2022-07-25T23:23:58.795Z,98248.00
2022-07-25T23:26:27.092Z,98253.00
2022-07-25T23:28:55.283Z,98253.00
2022-07-25T23:31:23.596Z,98258.00
2022-07-25T23:33:52.086Z,98271.00
2022-07-25T23:36:21.675Z,98272.00
2022-07-25T23:38:49.835Z,98269.00
2022-07-25T23:41:18.182Z,98282.00
2022-07-25T23:43:52.231Z,98275.00
2022-07-25T23:46:27.720Z,98272.00
2022-07-25T23:48:57.817Z,98286.00
2022-07-25T23:51:27.481Z,98293.00
2022-07-25T23:53:55.633Z,98301.00
2022-07-25T23:56:23.847Z,98294.00
2022-07-25T23:58:52.111Z,98290.00
